Time;durP1;ratioP1;P1;durP2;ratioP2;P2;SDS_P1;SDS_P2;PMS_P1;PMS_P2;Temp;Humidity;BMP_temperature;BMP_pressure;BME280_temperature;BME280_humidity;BME280_pressure;Samples;Min_cycle;Max_cycle;Signal;HPM_P1;HPM_P2
2023/03/11 00:02:06;;;;;;;1.88;0.73;;;2.60;99.90;;;;;;5023242;28;20037;-72
2023/03/11 00:04:32;;;;;;;2.80;0.75;;;2.70;99.90;;;;;;5041376;28;20067;-72
2023/03/11 00:06:58;;;;;;;4.10;0.88;;;2.60;99.90;;;;;;5058892;28;20041;-72
2023/03/11 00:09:23;;;;;;;5.53;0.75;;;2.40;99.90;;;;;;5042353;28;20081;-72
2023/03/11 00:11:49;;;;;;;6.20;0.90;;;2.40;99.90;;;;;;5040925;28;20079;-72
2023/03/11 00:14:15;;;;;;;7.03;1.58;;;2.20;99.90;;;;;;5040589;28;20437;-72
2023/03/11 00:16:40;;;;;;;1.35;0.55;;;2.10;99.90;;;;;;5060023;28;20049;-71
2023/03/11 00:19:06;;;;;;;2.45;0.73;;;2.00;99.90;;;;;;5040960;28;20044;-71
2023/03/11 00:21:32;;;;;;;3.85;0.80;;;1.90;99.90;;;;;;5040943;28;20165;-72
2023/03/11 00:24:00;;;;;;;5.00;0.63;;;1.90;99.90;;;;;;5043374;28;20060;-72
2023/03/11 00:26:26;;;;;;;3.80;0.80;;;1.80;99.90;;;;;;5040555;28;20036;-72
2023/03/11 00:28:54;;;;;;;2.30;0.70;;;1.80;99.90;;;;;;5059345;28;20403;-71
2023/03/11 00:31:20;;;;;;;4.55;0.90;;;1.70;99.90;;;;;;5041973;28;20535;-72
2023/03/11 00:33:46;;;;;;;4.55;0.80;;;1.70;99.90;;;;;;5040700;28;20059;-72
2023/03/11 00:36:30;;;;;;;2.75;0.90;;;1.60;99.90;;;;;;5010129;28;20494;-71
2023/03/11 00:38:57;;;;;;;3.67;0.93;;;1.60;99.90;;;;;;5043582;28;20049;-71
2023/03/11 00:41:23;;;;;;;3.35;0.80;;;1.50;99.90;;;;;;5043048;28;20466;-73
2023/03/11 00:43:49;;;;;;;4.13;0.70;;;1.50;99.90;;;;;;5041826;28;20468;-70
2023/03/11 00:46:14;;;;;;;5.85;1.17;;;1.40;99.90;;;;;;5040341;28;20045;-70
2023/03/11 00:48:40;;;;;;;2.83;0.60;;;1.40;99.90;;;;;;5041614;28;20044;-71
2023/03/11 00:51:09;;;;;;;1.88;0.50;;;1.30;99.90;;;;;;5041539;28;20388;-71
2023/03/11 00:53:35;;;;;;;2.33;0.73;;;1.40;99.90;;;;;;5042530;28;20085;-71
2023/03/11 00:56:09;;;;;;;3.50;0.77;;;1.20;99.90;;;;;;5040681;28;20036;-71
2023/03/11 00:58:35;;;;;;;4.50;0.70;;;1.30;99.90;;;;;;5026290;28;20416;-71
2023/03/11 01:01:13;;;;;;;3.60;0.80;;;1.20;99.90;;;;;;5039898;28;20048;-71
2023/03/11 01:03:39;;;;;;;2.45;0.70;;;1.30;99.90;;;;;;5041429;28;20060;-71
2023/03/11 01:06:05;;;;;;;3.13;0.75;;;1.20;99.90;;;;;;5044021;28;20068;-72
2023/03/11 01:08:31;;;;;;;3.72;0.52;;;1.20;99.90;;;;;;5027819;28;20037;-71
2023/03/11 01:10:57;;;;;;;1.98;0.50;;;1.20;99.90;;;;;;5046797;28;20045;-71
2023/03/11 01:13:24;;;;;;;4.20;0.80;;;1.20;99.90;;;;;;5045120;28;20355;-71
2023/03/11 01:15:51;;;;;;;5.13;0.75;;;1.20;99.90;;;;;;5049458;28;20084;-71
2023/03/11 01:18:17;;;;;;;4.55;0.80;;;1.20;99.90;;;;;;5060522;28;20048;-71
2023/03/11 01:20:43;;;;;;;3.22;0.90;;;1.20;99.90;;;;;;5064164;28;20055;-71
2023/03/11 01:23:10;;;;;;;3.30;0.80;;;1.10;99.90;;;;;;5060365;28;20032;-71
2023/03/11 01:25:36;;;;;;;1.63;0.70;;;1.10;99.90;;;;;;5046528;28;20044;-71
2023/03/11 01:28:01;;;;;;;4.05;0.70;;;1.10;99.90;;;;;;5047626;28;20059;-71
2023/03/11 01:30:28;;;;;;;4.72;0.80;;;1.10;99.90;;;;;;5063143;28;20464;-71
2023/03/11 01:32:55;;;;;;;3.40;0.70;;;1.10;99.90;;;;;;5064723;28;20059;-71
2023/03/11 01:35:23;;;;;;;2.90;0.50;;;1.00;99.90;;;;;;5059260;28;20405;-72
2023/03/11 01:37:49;;;;;;;2.22;0.60;;;1.00;99.90;;;;;;5063119;28;20066;-71
2023/03/11 01:40:39;;;;;;;3.47;0.65;;;1.00;99.90;;;;;;5061423;28;20548;-71
2023/03/11 01:43:26;;;;;;;3.25;0.80;;;1.10;99.90;;;;;;5043211;28;20408;-72
2023/03/11 01:45:51;;;;;;;3.40;0.70;;;1.10;99.90;;;;;;5043029;28;20046;-71
2023/03/11 01:48:17;;;;;;;2.33;0.50;;;1.10;99.90;;;;;;5062194;28;20487;-71
2023/03/11 01:50:48;;;;;;;2.72;0.60;;;1.10;99.90;;;;;;5044297;28;20050;-71
2023/03/11 01:53:16;;;;;;;4.20;0.70;;;1.00;99.90;;;;;;5061669;28;20074;-71
2023/03/11 01:55:43;;;;;;;4.38;0.55;;;1.10;99.90;;;;;;5047112;28;20037;-71
2023/03/11 01:58:13;;;;;;;4.82;0.63;;;1.10;99.90;;;;;;5061816;28;20411;-71
2023/03/11 02:00:40;;;;;;;3.47;0.40;;;1.00;99.90;;;;;;5042147;28;20055;-71
2023/03/11 02:03:13;;;;;;;2.08;0.60;;;1.00;99.90;;;;;;5063712;28;20068;-71
2023/03/11 02:05:39;;;;;;;3.70;1.40;;;1.00;99.90;;;;;;5063451;28;20048;-70
2023/03/11 02:08:06;;;;;;;1.98;0.40;;;0.90;99.90;;;;;;5058011;28;20076;-71
2023/03/11 02:10:32;;;;;;;3.05;0.82;;;0.80;99.90;;;;;;5043421;28;20411;-71
2023/03/11 02:12:58;;;;;;;1.42;0.70;;;0.80;99.90;;;;;;5061576;28;20124;-71
2023/03/11 02:15:25;;;;;;;2.15;0.60;;;0.70;99.90;;;;;;5056649;28;20059;-72
2023/03/11 02:17:52;;;;;;;1.70;0.50;;;0.70;99.90;;;;;;5058716;28;20119;-71
2023/03/11 02:20:43;;;;;;;1.80;0.55;;;0.60;99.90;;;;;;5063473;28;20040;-71
2023/03/11 02:23:11;;;;;;;1.55;0.50;;;0.50;99.90;;;;;;5062655;28;20541;-71
2023/03/11 02:25:46;;;;;;;1.35;0.50;;;0.50;99.90;;;;;;5042520;28;20044;-70
2023/03/11 02:28:14;;;;;;;1.95;0.60;;;0.40;99.90;;;;;;5061175;28;20048;-71
2023/03/11 02:30:42;;;;;;;4.00;0.90;;;0.50;99.90;;;;;;5063359;28;20059;-71
2023/03/11 02:33:08;;;;;;;3.85;0.75;;;0.50;99.90;;;;;;5060869;28;20072;-71
2023/03/11 02:35:34;;;;;;;3.72;0.60;;;0.50;99.90;;;;;;5059283;28;20068;-71
2023/03/11 02:38:00;;;;;;;2.10;0.60;;;0.50;99.90;;;;;;5059465;28;20056;-71
2023/03/11 02:40:35;;;;;;;4.03;0.80;;;0.40;99.90;;;;;;5060541;28;20037;-71
2023/03/11 02:43:06;;;;;;;1.70;0.50;;;0.40;99.90;;;;;;5060613;28;20652;-70
2023/03/11 02:45:32;;;;;;;3.63;0.50;;;0.40;99.90;;;;;;5060366;28;20057;-70
2023/03/11 02:47:59;;;;;;;2.85;0.65;;;0.30;99.90;;;;;;5060151;28;20074;-70
2023/03/11 02:50:27;;;;;;;0.85;0.30;;;0.40;99.90;;;;;;5061104;28;20063;-71
2023/03/11 02:52:53;;;;;;;1.90;0.80;;;0.30;99.90;;;;;;5059695;28;20075;-71
2023/03/11 02:55:20;;;;;;;3.33;1.00;;;0.30;99.90;;;;;;5069048;28;20060;-71
2023/03/11 02:57:49;;;;;;;2.97;0.93;;;0.40;99.90;;;;;;5053322;28;20463;-70
2023/03/11 03:00:16;;;;;;;2.17;0.75;;;0.30;99.90;;;;;;5068957;28;20036;-71
2023/03/11 03:02:43;;;;;;;2.00;0.77;;;0.30;99.90;;;;;;5061562;28;20040;-71
2023/03/11 03:05:10;;;;;;;1.83;0.70;;;0.30;99.90;;;;;;5053056;28;20047;-71
2023/03/11 03:07:36;;;;;;;1.33;0.70;;;0.20;99.90;;;;;;5066889;28;20036;-70
2023/03/11 03:10:04;;;;;;;0.82;0.40;;;0.10;99.90;;;;;;5060818;28;20079;-70
2023/03/11 03:12:29;;;;;;;1.77;0.70;;;0.00;99.90;;;;;;5039463;28;20111;-70
2023/03/11 03:14:56;;;;;;;1.15;0.47;;;-0.10;99.90;;;;;;5049408;28;20072;-70
2023/03/11 03:17:23;;;;;;;1.42;0.60;;;-0.20;99.90;;;;;;5063231;28;20057;-70
2023/03/11 03:19:48;;;;;;;0.60;0.40;;;-0.30;99.90;;;;;;5050288;28;20060;-71
2023/03/11 03:22:15;;;;;;;1.30;0.40;;;-0.30;99.90;;;;;;5056283;28;20064;-70
2023/03/11 03:24:40;;;;;;;0.57;0.30;;;-0.40;99.90;;;;;;5070300;28;20044;-70
2023/03/11 03:27:06;;;;;;;0.30;0.20;;;-0.50;99.90;;;;;;5066876;28;20045;-70
2023/03/11 03:29:32;;;;;;;0.30;0.20;;;-0.60;99.90;;;;;;5034400;28;20041;-70
2023/03/11 03:31:57;;;;;;;1.35;0.10;;;-0.70;99.90;;;;;;5053358;28;20414;-70
2023/03/11 03:34:23;;;;;;;0.85;0.20;;;-0.80;99.90;;;;;;5057038;28;20075;-71
2023/03/11 03:36:49;;;;;;;0.52;0.03;;;-0.90;99.90;;;;;;5067571;28;20583;-70
2023/03/11 03:39:14;;;;;;;0.43;0.03;;;-1.00;99.90;;;;;;5063975;28;20044;-70
2023/03/11 03:41:40;;;;;;;0.00;0.00;;;-1.10;99.90;;;;;;5052919;28;20102;-70
2023/03/11 03:44:06;;;;;;;0.10;0.08;;;-1.20;99.90;;;;;;5065626;28;20059;-71
2023/03/11 03:46:31;;;;;;;0.10;0.00;;;-1.30;99.90;;;;;;5070733;28;20048;-71
2023/03/11 03:48:57;;;;;;;0.15;0.10;;;-1.30;99.90;;;;;;5084202;28;20048;-71
2023/03/11 03:51:23;;;;;;;0.60;0.10;;;-1.30;99.90;;;;;;5069630;28;20559;-70
2023/03/11 03:53:49;;;;;;;0.52;0.10;;;-1.40;99.90;;;;;;5065040;28;20123;-70
2023/03/11 03:56:16;;;;;;;0.32;0.17;;;-1.40;99.90;;;;;;5053080;28;20063;-70
2023/03/11 03:58:42;;;;;;;0.00;0.00;;;-1.40;99.90;;;;;;5068101;28;20079;-70
2023/03/11 04:01:09;;;;;;;0.30;0.10;;;-1.40;99.90;;;;;;5068928;28;20496;-71
2023/03/11 04:03:36;;;;;;;0.10;0.10;;;-1.50;99.90;;;;;;5066287;28;20115;-70
2023/03/11 04:06:29;;;;;;;0.50;0.20;;;-1.50;99.90;;;;;;5069632;28;20037;-70
2023/03/11 04:08:54;;;;;;;0.20;0.20;;;-1.50;99.90;;;;;;5064081;28;20071;-71
2023/03/11 04:11:21;;;;;;;0.13;0.10;;;-1.50;99.90;;;;;;5030840;28;20037;-70
2023/03/11 04:13:47;;;;;;;0.40;0.10;;;-1.50;99.90;;;;;;5061116;28;20149;-70
2023/03/11 04:16:18;;;;;;;0.50;0.10;;;-1.50;99.90;;;;;;5055939;28;20119;-70
2023/03/11 04:18:44;;;;;;;0.00;0.00;;;-1.60;99.90;;;;;;5068746;28;20093;-70
2023/03/11 04:21:10;;;;;;;0.00;0.00;;;-1.60;99.90;;;;;;5062980;28;20391;-69
2023/03/11 04:23:36;;;;;;;0.10;0.10;;;-1.70;99.90;;;;;;5054474;28;20166;-69
2023/03/11 04:26:02;;;;;;;0.10;0.10;;;-1.70;99.90;;;;;;5052547;28;20499;-70
2023/03/11 04:28:28;;;;;;;0.10;0.10;;;-1.60;99.90;;;;;;5065203;28;20072;-70
2023/03/11 04:30:53;;;;;;;0.60;0.00;;;-1.70;99.90;;;;;;5062688;28;20137;-70
2023/03/11 04:33:19;;;;;;;0.22;0.20;;;-1.80;99.90;;;;;;5046379;28;20107;-70
2023/03/11 04:35:45;;;;;;;0.20;0.10;;;-1.70;99.90;;;;;;5069080;28;20044;-69
2023/03/11 04:38:10;;;;;;;0.85;0.20;;;-1.70;99.90;;;;;;5069287;28;20049;-70
2023/03/11 04:40:37;;;;;;;0.70;0.30;;;-1.70;99.90;;;;;;5055037;28;20083;-69
2023/03/11 04:43:03;;;;;;;0.28;0.13;;;-1.60;99.90;;;;;;5053079;28;20120;-71
2023/03/11 04:45:28;;;;;;;0.55;0.10;;;-1.70;99.90;;;;;;5069386;28;20455;-70
2023/03/11 04:47:54;;;;;;;0.73;0.20;;;-1.70;99.90;;;;;;5073025;28;20157;-70
2023/03/11 04:50:21;;;;;;;0.15;0.10;;;-1.80;99.90;;;;;;5055865;28;20475;-70
2023/03/11 04:52:47;;;;;;;0.50;0.20;;;-1.70;99.90;;;;;;5054868;28;20079;-70
2023/03/11 04:55:14;;;;;;;0.40;0.20;;;-1.90;99.90;;;;;;5071467;28;20076;-70
2023/03/11 04:57:41;;;;;;;1.48;0.30;;;-1.80;99.90;;;;;;5073198;28;20186;-70
2023/03/11 05:00:10;;;;;;;0.75;0.20;;;-1.70;99.90;;;;;;5071393;28;20415;-71
2023/03/11 05:02:37;;;;;;;1.13;0.50;;;-1.60;99.90;;;;;;5055186;28;20037;-70
2023/03/11 05:05:03;;;;;;;1.33;0.30;;;-1.60;99.90;;;;;;5070954;28;20515;-70
2023/03/11 05:07:29;;;;;;;0.50;0.20;;;-1.70;99.90;;;;;;5071827;28;20472;-70
2023/03/11 05:09:54;;;;;;;2.33;0.20;;;-1.60;99.90;;;;;;5056563;28;20044;-70
2023/03/11 05:12:20;;;;;;;0.85;0.20;;;-1.70;99.90;;;;;;5052682;28;20130;-70
2023/03/11 05:14:46;;;;;;;1.65;0.10;;;-1.70;99.90;;;;;;5062821;28;20064;-70
2023/03/11 05:17:13;;;;;;;0.82;0.13;;;-1.70;99.90;;;;;;5071781;28;20052;-70
2023/03/11 05:19:39;;;;;;;0.15;0.00;;;-1.90;99.90;;;;;;5067663;28;20115;-70
2023/03/11 05:22:06;;;;;;;0.60;0.17;;;-1.80;99.90;;;;;;5062780;28;20044;-71
2023/03/11 05:24:32;;;;;;;0.10;0.10;;;-2.00;99.90;;;;;;5050109;28;20066;-70
2023/03/11 05:26:58;;;;;;;0.20;0.13;;;-1.80;99.90;;;;;;5070662;28;20506;-71
2023/03/11 05:29:25;;;;;;;0.38;0.25;;;-1.80;99.90;;;;;;5051923;28;20036;-71
2023/03/11 05:31:51;;;;;;;0.47;0.22;;;-1.80;99.90;;;;;;5070748;28;20469;-70
2023/03/11 05:34:17;;;;;;;0.90;0.30;;;-1.80;99.90;;;;;;5055435;28;20071;-70
2023/03/11 05:36:43;;;;;;;0.50;0.20;;;-1.80;99.90;;;;;;5035531;28;20700;-70
2023/03/11 05:39:09;;;;;;;;;;;-1.80;99.90;;;;;;5067869;28;20114;-70
2023/03/11 05:41:36;;;;;;;1.42;0.20;;;-2.00;99.90;;;;;;5068588;28;20359;-71
2023/03/11 05:44:02;;;;;;;0.82;0.30;;;-1.90;99.90;;;;;;5069604;28;20463;-70
2023/03/11 05:46:28;;;;;;;0.30;0.17;;;-1.90;99.90;;;;;;5070354;28;20048;-70
2023/03/11 05:48:54;;;;;;;1.65;0.20;;;-1.80;99.90;;;;;;5070382;28;20063;-71
2023/03/11 05:51:20;;;;;;;0.98;0.10;;;-2.00;99.90;;;;;;5070893;28;20395;-71
2023/03/11 05:53:47;;;;;;;0.20;0.10;;;-1.70;99.90;;;;;;5072081;28;20044;-70
2023/03/11 05:56:20;;;;;;;0.70;0.10;;;-1.70;99.90;;;;;;5051625;28;20480;-71
2023/03/11 05:58:47;;;;;;;0.13;0.10;;;-1.70;99.90;;;;;;5067771;28;20459;-71
2023/03/11 06:01:14;;;;;;;;;;;-1.90;99.90;;;;;;5062506;28;20072;-70
2023/03/11 06:03:40;;;;;;;1.00;0.17;;;-1.60;99.90;;;;;;5070408;28;20287;-71
2023/03/11 06:06:08;;;;;;;0.20;0.10;;;-1.70;99.90;;;;;;5063133;28;20032;-71
2023/03/11 06:08:34;;;;;;;0.20;0.20;;;-1.60;99.90;;;;;;5071048;28;20059;-71
2023/03/11 06:11:08;;;;;;;0.30;0.10;;;-1.80;99.90;;;;;;5065501;28;20048;-71
2023/03/11 06:13:34;;;;;;;0.17;0.17;;;-1.90;99.90;;;;;;5065950;28;20109;-71
2023/03/11 06:16:00;;;;;;;0.75;0.20;;;-1.70;99.90;;;;;;5069065;28;20083;-71
2023/03/11 06:18:26;;;;;;;0.30;0.20;;;-1.70;99.90;;;;;;5051144;28;20041;-70
2023/03/11 06:20:53;;;;;;;0.80;0.22;;;-1.90;99.90;;;;;;5069579;28;20043;-71
2023/03/11 06:23:19;;;;;;;0.35;0.20;;;-2.00;99.90;;;;;;5062869;28;20110;-71
2023/03/11 06:25:57;;;;;;;0.10;0.10;;;-2.00;99.90;;;;;;5039956;28;20037;-71
2023/03/11 06:28:24;;;;;;;0.43;0.22;;;-1.80;99.90;;;;;;5069565;28;20044;-72
2023/03/11 06:30:49;;;;;;;0.65;0.10;;;-1.70;99.90;;;;;;5063285;28;20086;-72
2023/03/11 06:33:15;;;;;;;0.80;0.25;;;-1.90;99.90;;;;;;5040039;28;20052;-72
2023/03/11 06:35:41;;;;;;;0.80;0.30;;;-1.60;99.90;;;;;;5066835;28;20075;-73
2023/03/11 06:38:06;;;;;;;0.65;0.20;;;-1.90;99.90;;;;;;5063410;28;20491;-73
2023/03/11 06:40:32;;;;;;;1.50;0.28;;;-1.80;99.90;;;;;;5052384;28;20063;-73
2023/03/11 06:42:58;;;;;;;0.10;0.10;;;-1.70;99.90;;;;;;5069341;28;20063;-73
2023/03/11 06:45:24;;;;;;;0.35;0.10;;;-1.90;99.90;;;;;;5052536;28;20060;-73
2023/03/11 06:47:50;;;;;;;0.20;0.20;;;-1.80;99.90;;;;;;5043256;28;20329;-73
2023/03/11 06:50:15;;;;;;;0.90;0.22;;;-1.40;99.90;;;;;;5051192;28;20045;-72
2023/03/11 06:52:41;;;;;;;1.10;0.40;;;-1.30;99.90;;;;;;5048873;28;20037;-73
2023/03/11 06:55:07;;;;;;;1.02;0.32;;;-1.40;99.90;;;;;;5052751;28;20124;-72
2023/03/11 06:57:33;;;;;;;1.38;0.40;;;-1.30;99.90;;;;;;5062977;28;20048;-72
2023/03/11 06:59:59;;;;;;;0.90;0.40;;;-1.10;99.90;;;;;;5062514;28;20053;-72
2023/03/11 07:02:25;;;;;;;0.57;0.30;;;-0.90;99.90;;;;;;5034407;28;20037;-73
2023/03/11 07:04:51;;;;;;;0.60;0.30;;;-1.00;99.90;;;;;;5069517;28;20040;-73
2023/03/11 07:07:17;;;;;;;1.63;0.50;;;-0.90;99.90;;;;;;5069870;28;20400;-73
2023/03/11 07:09:42;;;;;;;0.80;0.40;;;-0.50;99.90;;;;;;5069354;28;20052;-73
2023/03/11 07:12:08;;;;;;;0.38;0.30;;;-0.70;99.90;;;;;;5068866;28;20106;-74
2023/03/11 07:14:34;;;;;;;1.25;0.60;;;-0.60;99.90;;;;;;5053559;28;20595;-73
2023/03/11 07:17:00;;;;;;;1.20;0.47;;;-0.60;99.90;;;;;;5068964;28;20066;-74
2023/03/11 07:19:26;;;;;;;2.15;0.80;;;-0.50;99.90;;;;;;5069498;28;20136;-73
2023/03/11 07:21:52;;;;;;;2.05;0.60;;;-0.20;99.90;;;;;;5067426;28;20159;-72
2023/03/11 07:24:17;;;;;;;2.33;0.60;;;-0.30;99.90;;;;;;5071095;28;20094;-73
2023/03/11 07:26:43;;;;;;;1.38;0.68;;;-0.20;99.90;;;;;;5050236;28;20539;-72
2023/03/11 07:29:09;;;;;;;1.15;0.68;;;-0.20;99.90;;;;;;5046574;28;20048;-72
2023/03/11 07:31:36;;;;;;;1.58;0.70;;;-0.10;99.90;;;;;;5067484;28;20120;-71
2023/03/11 07:34:04;;;;;;;2.40;0.90;;;0.20;99.90;;;;;;5060949;28;20032;-71
2023/03/11 07:36:30;;;;;;;1.65;0.55;;;0.50;99.90;;;;;;5064029;28;20040;-72
2023/03/11 07:39:03;;;;;;;2.25;0.70;;;0.40;99.90;;;;;;5068177;28;20144;-71
2023/03/11 07:41:31;;;;;;;2.55;0.90;;;0.70;99.90;;;;;;5064849;28;20040;-71
2023/03/11 07:43:58;;;;;;;1.88;0.88;;;0.90;99.90;;;;;;5066003;28;20454;-72
2023/03/11 07:46:25;;;;;;;2.45;0.80;;;0.90;99.90;;;;;;5047746;28;20043;-73
2023/03/11 07:48:51;;;;;;;0.98;0.70;;;1.10;99.90;;;;;;5068304;28;20051;-73
2023/03/11 07:51:25;;;;;;;2.38;0.80;;;1.30;99.90;;;;;;5069867;28;20047;-73
2023/03/11 07:53:54;;;;;;;2.03;0.68;;;1.50;99.90;;;;;;5054814;28;20087;-73
2023/03/11 07:56:21;;;;;;;1.15;0.60;;;1.90;99.90;;;;;;5049565;28;20045;-73
2023/03/11 07:58:47;;;;;;;1.75;0.63;;;1.80;99.90;;;;;;5050429;28;20044;-73
2023/03/11 08:01:16;;;;;;;1.08;0.50;;;2.10;99.90;;;;;;5058596;28;20056;-74
2023/03/11 08:03:44;;;;;;;2.38;0.90;;;2.30;99.90;;;;;;5056658;28;20491;-73
2023/03/11 08:06:19;;;;;;;2.80;0.68;;;2.30;99.90;;;;;;5049191;28;20041;-78
2023/03/11 08:08:45;;;;;;;1.83;0.70;;;2.50;99.90;;;;;;5038497;28;20045;-72
2023/03/11 08:11:12;;;;;;;0.80;0.70;;;2.50;99.90;;;;;;5053491;28;20048;-73
2023/03/11 08:13:43;;;;;;;3.08;0.90;;;2.60;99.90;;;;;;5060597;28;20119;-72
2023/03/11 08:16:11;;;;;;;1.95;1.00;;;2.80;99.90;;;;;;5069459;28;20113;-73
2023/03/11 08:18:37;;;;;;;1.70;1.00;;;2.80;99.90;;;;;;5050955;28;20053;-72
2023/03/11 08:21:07;;;;;;;3.20;1.65;;;2.60;99.90;;;;;;5046610;28;20185;-73
2023/03/11 08:23:34;;;;;;;3.67;1.10;;;2.60;99.90;;;;;;5051036;28;20048;-81
2023/03/11 08:26:04;;;;;;;2.80;1.02;;;2.40;99.90;;;;;;5064948;28;20037;-73
2023/03/11 08:28:33;;;;;;;3.17;1.10;;;2.50;99.90;;;;;;5067511;28;20392;-73
2023/03/11 08:30:59;;;;;;;3.25;1.10;;;2.50;99.90;;;;;;5016218;28;20049;-73
2023/03/11 08:33:25;;;;;;;3.08;1.30;;;2.50;99.90;;;;;;5037505;28;20127;-71
2023/03/11 08:35:50;;;;;;;3.78;1.65;;;2.40;99.90;;;;;;5061069;28;20139;-73
2023/03/11 08:38:16;;;;;;;4.95;1.98;;;2.40;99.90;;;;;;5049364;28;20052;-71
2023/03/11 08:40:42;;;;;;;3.42;1.70;;;2.40;99.90;;;;;;5076558;28;20083;-72
2023/03/11 08:43:20;;;;;;;3.53;1.65;;;2.40;99.90;;;;;;5079038;28;20047;-74
2023/03/11 08:45:45;;;;;;;3.40;1.50;;;2.30;99.90;;;;;;5045988;28;20586;-74
2023/03/11 08:48:11;;;;;;;3.13;1.70;;;2.40;99.90;;;;;;5060374;28;20139;-74
2023/03/11 08:50:41;;;;;;;3.08;1.40;;;2.40;99.90;;;;;;5065948;28;20048;-72
2023/03/11 08:53:07;;;;;;;2.28;1.13;;;2.40;99.90;;;;;;5066124;28;20082;-72
2023/03/11 08:55:33;;;;;;;;;;;2.40;99.90;;;;;;5049531;28;20053;-73
2023/03/11 08:57:59;;;;;;;4.85;1.20;;;2.40;99.90;;;;;;5064259;28;19935;-73
2023/03/11 09:00:25;;;;;;;2.00;1.00;;;2.40;99.90;;;;;;5050450;28;20032;-73
2023/03/11 09:02:50;;;;;;;2.05;1.10;;;2.30;99.90;;;;;;5065145;28;20044;-72
2023/03/11 09:05:16;;;;;;;3.15;1.00;;;2.40;99.90;;;;;;5065391;28;20047;-73
2023/03/11 09:07:42;;;;;;;1.98;0.90;;;2.40;99.90;;;;;;5066170;28;20040;-72
2023/03/11 09:10:10;;;;;;;2.55;0.82;;;2.50;99.90;;;;;;5067476;28;20056;-73
2023/03/11 09:12:35;;;;;;;1.92;0.80;;;2.60;99.90;;;;;;5063538;28;20040;-73
2023/03/11 09:15:01;;;;;;;1.52;1.02;;;2.60;99.90;;;;;;5049970;28;20469;-74
2023/03/11 09:17:27;;;;;;;2.78;0.88;;;2.70;99.90;;;;;;5065387;28;20053;-74
2023/03/11 09:19:52;;;;;;;2.08;1.00;;;2.70;99.90;;;;;;5050627;28;20164;-74
2023/03/11 09:22:18;;;;;;;4.93;1.30;;;2.80;99.90;;;;;;5049167;28;20032;-75
2023/03/11 09:24:44;;;;;;;4.00;1.38;;;2.80;99.90;;;;;;5069335;28;20115;-74
2023/03/11 09:27:11;;;;;;;2.83;1.20;;;3.00;99.90;;;;;;5069305;28;20036;-74
2023/03/11 09:29:37;;;;;;;7.28;1.70;;;3.00;99.90;;;;;;5070079;28;20046;-74
2023/03/11 09:32:03;;;;;;;3.20;1.20;;;3.00;99.90;;;;;;5068788;28;20036;-74
2023/03/11 09:34:29;;;;;;;2.15;1.00;;;3.10;99.90;;;;;;5049362;28;20483;-74
2023/03/11 09:36:55;;;;;;;2.22;1.00;;;3.20;99.90;;;;;;5066057;28;20048;-74
2023/03/11 09:39:20;;;;;;;2.75;1.30;;;3.30;99.90;;;;;;5067161;28;20512;-73
2023/03/11 09:41:54;;;;;;;3.78;1.10;;;3.30;99.90;;;;;;5065892;28;20095;-74
2023/03/11 09:44:26;;;;;;;3.60;1.00;;;3.30;99.90;;;;;;5068315;28;20044;-74
2023/03/11 09:47:25;;;;;;;2.30;1.20;;;3.30;99.90;;;;;;5068303;28;20079;-73
2023/03/11 09:50:11;;;;;;;4.70;1.23;;;3.40;99.90;;;;;;5032779;28;20055;-73
2023/03/11 09:52:52;;;;;;;4.80;1.20;;;3.50;99.90;;;;;;5066618;28;20491;-73
2023/03/11 09:55:26;;;;;;;1.70;0.90;;;3.60;99.90;;;;;;5087436;28;20045;-73
2023/03/11 09:57:54;;;;;;;4.03;1.10;;;3.60;99.90;;;;;;5053691;28;20068;-73
2023/03/11 10:00:22;;;;;;;3.58;1.10;;;3.70;99.90;;;;;;5069881;28;20047;-74
2023/03/11 10:02:49;;;;;;;3.05;1.20;;;3.80;99.90;;;;;;5069472;28;20371;-74
2023/03/11 10:05:27;;;;;;;4.28;1.38;;;3.80;99.90;;;;;;5051317;28;20106;-74
2023/03/11 10:08:02;;;;;;;4.88;1.30;;;3.90;99.90;;;;;;5050985;28;20037;-74
2023/03/11 10:10:33;;;;;;;2.08;1.20;;;4.00;99.90;;;;;;5052130;28;20047;-74
2023/03/11 10:13:25;;;;;;;2.85;1.48;;;4.00;99.90;;;;;;5079467;28;20043;-74
2023/03/11 10:16:07;;;;;;;4.75;1.63;;;4.10;99.90;;;;;;5083375;28;20247;-74
2023/03/11 10:19:05;;;;;;;4.28;1.55;;;4.10;99.90;;;;;;5080157;28;20048;-74
2023/03/11 10:21:49;;;;;;;5.43;1.45;;;4.20;99.90;;;;;;5055143;28;20094;-74
2023/03/11 10:25:09;;;;;;;4.88;1.48;;;4.20;99.90;;;;;;5069075;28;20119;-73
2023/03/11 10:27:44;;;;;;;3.97;1.85;;;4.30;99.90;;;;;;4917278;29;20084;-73
2023/03/11 10:30:22;;;;;;;4.55;1.33;;;4.30;99.90;;;;;;5049557;28;20049;-74
2023/03/11 10:32:59;;;;;;;4.13;1.50;;;4.40;99.90;;;;;;5049558;28;20041;-72
2023/03/11 10:35:37;;;;;;;4.53;1.20;;;4.50;99.90;;;;;;5068275;28;20036;-72
2023/03/11 10:38:13;;;;;;;3.97;1.25;;;4.60;99.90;;;;;;5051760;28;20044;-72
2023/03/11 10:40:42;;;;;;;8.23;1.35;;;4.60;99.90;;;;;;5069093;28;20052;-72
2023/03/11 10:43:16;;;;;;;7.22;1.50;;;4.60;99.90;;;;;;5033701;28;20037;-73
2023/03/11 10:45:44;;;;;;;5.15;1.40;;;4.80;99.90;;;;;;5051064;28;20055;-72
2023/03/11 10:48:13;;;;;;;5.75;1.33;;;4.90;99.90;;;;;;5053560;28;20051;-74
2023/03/11 10:50:57;;;;;;;2.95;1.27;;;5.10;99.90;;;;;;5053519;28;20080;-72
2023/03/11 10:53:23;;;;;;;4.20;1.30;;;5.40;99.90;;;;;;5050091;28;20040;-72
2023/03/11 10:55:54;;;;;;;4.28;1.20;;;5.50;99.90;;;;;;5044800;28;20479;-72
2023/03/11 10:58:22;;;;;;;2.85;1.20;;;5.70;99.90;;;;;;5045282;28;20570;-72
2023/03/11 11:01:14;;;;;;;3.65;1.05;;;5.80;99.90;;;;;;5050973;28;20118;-71
2023/03/11 11:03:48;;;;;;;3.60;1.13;;;5.90;99.90;;;;;;5032608;28;20028;-71
2023/03/11 11:06:33;;;;;;;5.70;1.20;;;6.00;99.90;;;;;;5060087;28;20115;-72
2023/03/11 11:09:23;;;;;;;5.40;1.20;;;6.20;99.90;;;;;;5081711;28;20106;-71
2023/03/11 11:12:12;;;;;;;5.50;1.50;;;6.20;99.90;;;;;;5071031;28;20052;-72
2023/03/11 11:14:50;;;;;;;5.07;1.65;;;6.10;99.90;;;;;;5061715;28;20449;-71
2023/03/11 11:17:22;;;;;;;6.03;1.33;;;6.30;99.90;;;;;;5039051;28;20053;-70
2023/03/11 11:19:49;;;;;;;3.95;1.35;;;6.50;99.90;;;;;;5067717;28;20080;-71
2023/03/11 11:22:17;;;;;;;4.65;1.17;;;6.60;99.90;;;;;;5049188;28;20467;-72
2023/03/11 11:24:47;;;;;;;4.55;1.27;;;6.60;99.90;;;;;;5057944;28;20481;-72
2023/03/11 11:27:18;;;;;;;5.13;1.30;;;6.80;99.90;;;;;;5064242;28;20041;-72
2023/03/11 11:29:45;;;;;;;5.20;1.40;;;6.80;99.90;;;;;;5066826;28;20048;-73
2023/03/11 11:32:24;;;;;;;3.17;1.15;;;6.90;99.90;;;;;;5066975;28;20449;-72
2023/03/11 11:35:06;;;;;;;5.32;1.42;;;7.10;99.90;;;;;;5066212;28;20052;-73
2023/03/11 11:37:37;;;;;;;5.82;1.33;;;7.00;99.90;;;;;;5068606;28;20048;-73
2023/03/11 11:40:13;;;;;;;5.30;1.30;;;7.10;99.90;;;;;;5065239;28;20105;-73
2023/03/11 11:42:55;;;;;;;4.57;1.23;;;7.10;99.90;;;;;;5065332;28;20044;-73
2023/03/11 11:45:37;;;;;;;6.80;1.00;;;7.00;99.50;;;;;;5066068;28;20071;-72
2023/03/11 11:48:31;;;;;;;3.83;1.30;;;7.10;97.40;;;;;;5042052;28;20044;-73
2023/03/11 11:51:00;;;;;;;4.20;1.30;;;7.20;99.60;;;;;;5047021;28;20041;-72
2023/03/11 11:53:46;;;;;;;5.93;1.30;;;7.10;97.90;;;;;;5048476;28;20123;-74
2023/03/11 11:56:12;;;;;;;4.60;1.67;;;7.20;97.60;;;;;;5058224;28;20084;-74
2023/03/11 11:58:40;;;;;;;3.67;1.10;;;7.10;92.70;;;;;;5034281;28;20123;-74
2023/03/11 12:01:56;;;;;;;4.25;1.10;;;7.10;92.30;;;;;;5068770;28;20041;-74
2023/03/11 12:04:42;;;;;;;4.65;1.40;;;7.30;95.50;;;;;;4981231;28;20112;-74
2023/03/11 12:07:17;;;;;;;6.17;1.37;;;7.10;94.20;;;;;;5048663;28;20399;-75
2023/03/11 12:09:49;;;;;;;2.60;0.90;;;7.30;99.90;;;;;;5069042;28;20769;-75
2023/03/11 12:12:45;;;;;;;3.88;1.17;;;7.60;99.90;;;;;;5041680;28;20521;-75
2023/03/11 12:15:33;;;;;;;4.22;1.17;;;7.40;93.40;;;;;;5049644;28;20103;-75
2023/03/11 12:18:03;;;;;;;4.60;1.25;;;7.50;93.80;;;;;;5063249;28;20063;-76
2023/03/11 12:20:41;;;;;;;5.80;1.15;;;7.50;92.60;;;;;;5082885;28;20064;-75
2023/03/11 12:23:32;;;;;;;4.65;1.08;;;7.30;86.90;;;;;;5046415;28;20040;-76
2023/03/11 12:26:08;;;;;;;2.38;0.95;;;7.40;96.50;;;;;;5041678;28;20648;-76
2023/03/11 12:28:52;;;;;;;2.03;1.00;;;7.60;96.40;;;;;;5049439;28;20106;-76
2023/03/11 12:31:20;;;;;;;2.22;0.77;;;7.70;97.80;;;;;;5060485;28;20585;-72
2023/03/11 12:33:52;;;;;;;6.47;0.80;;;7.30;64.20;;;;;;5060731;28;20033;-73
2023/03/11 12:36:32;;;;;;;2.70;0.68;;;7.30;52.60;;;;;;5063795;28;20036;-73
2023/03/11 12:39:04;;;;;;;3.75;0.63;;;7.10;47.40;;;;;;5059878;28;20037;-71
2023/03/11 12:41:40;;;;;;;1.77;0.47;;;7.10;59.70;;;;;;5061220;28;20041;-71
2023/03/11 12:44:30;;;;;;;2.58;0.60;;;7.20;59.90;;;;;;5062182;28;20041;-71
2023/03/11 12:46:58;;;;;;;1.60;0.68;;;7.20;84.70;;;;;;5061514;28;20691;-71
2023/03/11 12:49:33;;;;;;;1.45;0.50;;;7.10;63.30;;;;;;5058453;28;20118;-71
2023/03/11 12:52:03;;;;;;;2.10;0.60;;;6.90;48.50;;;;;;5043737;28;20080;-72
2023/03/11 12:54:36;;;;;;;2.53;0.52;;;6.90;73.00;;;;;;5061037;28;20052;-71
2023/03/11 12:57:20;;;;;;;4.15;0.80;;;7.00;63.70;;;;;;5048174;28;20053;-71
2023/03/11 13:00:21;;;;;;;3.33;0.75;;;7.20;77.20;;;;;;5066938;28;20339;-71
2023/03/11 13:03:15;;;;;;;1.90;0.60;;;7.40;63.70;;;;;;5071508;28;20040;-71
2023/03/11 13:05:59;;;;;;;6.82;1.13;;;7.70;72.00;;;;;;5046309;28;20381;-71
2023/03/11 13:08:46;;;;;;;3.35;0.77;;;7.50;43.30;;;;;;5048187;28;20045;-71
2023/03/11 13:11:27;;;;;;;2.05;0.70;;;7.60;44.40;;;;;;5045934;28;20056;-71